createdAt,value
2023-03-25T00:01:35.544Z,8.73
2023-03-25T00:04:04.547Z,8.71
2023-03-25T00:06:34.843Z,8.69
2023-03-25T00:09:04.210Z,8.67
2023-03-25T00:11:31.928Z,8.64
2023-03-25T00:14:00.194Z,8.62
2023-03-25T00:16:27.961Z,8.60
2023-03-25T00:18:56.233Z,8.59
2023-03-25T00:21:24.201Z,8.60
2023-03-25T00:23:51.886Z,8.66
2023-03-25T00:26:20.016Z,8.75
2023-03-25T00:28:47.721Z,8.83
2023-03-25T00:31:15.872Z,8.93
2023-03-25T00:33:45.356Z,8.99
2023-03-25T00:36:15.065Z,8.99
2023-03-25T00:38:43.729Z,8.95
2023-03-25T00:41:11.656Z,8.91
2023-03-25T00:43:39.623Z,8.89
2023-03-25T00:46:07.559Z,8.89
2023-03-25T00:48:35.187Z,8.90
2023-03-25T00:51:07.471Z,8.92
2023-03-25T00:53:35.554Z,8.93
2023-03-25T00:56:03.566Z,8.94
2023-03-25T00:58:31.234Z,8.98
2023-03-25T01:00:59.421Z,9.05
2023-03-25T01:03:29.116Z,9.12
2023-03-25T01:05:58.104Z,9.17
2023-03-25T01:08:30.186Z,9.21
2023-03-25T01:10:57.807Z,9.25
2023-03-25T01:13:25.443Z,9.30
2023-03-25T01:15:53.448Z,9.35
2023-03-25T01:18:21.334Z,9.37
2023-03-25T01:20:49.576Z,9.40
2023-03-25T01:23:17.424Z,9.43
2023-03-25T01:25:45.009Z,9.46
2023-03-25T01:28:12.654Z,9.47
2023-03-25T01:30:40.650Z,9.49
2023-03-25T01:33:08.662Z,9.50
2023-03-25T01:35:36.439Z,9.51
2023-03-25T01:38:04.731Z,9.52
2023-03-25T01:40:32.309Z,9.53
2023-03-25T01:42:59.878Z,9.53
2023-03-25T01:45:27.892Z,9.53
2023-03-25T01:47:55.713Z,9.54
2023-03-25T01:50:23.769Z,9.55
2023-03-25T01:52:51.687Z,9.47
2023-03-25T01:55:20.449Z,9.40
2023-03-25T01:57:48.443Z,9.38
2023-03-25T02:00:16.378Z,9.38
2023-03-25T02:02:44.020Z,9.40
2023-03-25T02:05:11.834Z,9.42
2023-03-25T02:07:39.495Z,9.46
2023-03-25T02:10:07.935Z,9.48
2023-03-25T02:12:35.858Z,9.47
2023-03-25T02:15:03.995Z,9.46
2023-03-25T02:17:31.627Z,9.47
2023-03-25T02:20:09.156Z,9.47
2023-03-25T02:22:38.145Z,9.49
2023-03-25T02:25:05.748Z,9.52
2023-03-25T02:27:34.112Z,9.52
2023-03-25T02:30:01.781Z,9.53
2023-03-25T02:32:34.181Z,9.53
2023-03-25T02:35:02.189Z,9.55
2023-03-25T02:37:29.759Z,9.57
2023-03-25T02:39:59.925Z,9.58
2023-03-25T02:42:27.581Z,9.58
2023-03-25T02:44:55.796Z,9.60
2023-03-25T02:47:23.412Z,9.63
2023-03-25T02:49:51.260Z,9.64
2023-03-25T02:52:18.824Z,9.62
2023-03-25T02:54:47.650Z,9.62
2023-03-25T02:57:15.968Z,9.63
2023-03-25T02:59:43.609Z,9.62
2023-03-25T03:02:11.888Z,9.60
2023-03-25T03:04:39.615Z,9.54
2023-03-25T03:07:08.255Z,9.46
2023-03-25T03:09:36.251Z,9.36
2023-03-25T03:12:04.117Z,9.28
2023-03-25T03:14:31.694Z,9.20
2023-03-25T03:17:00.801Z,9.11
2023-03-25T03:19:28.693Z,9.02
2023-03-25T03:21:56.664Z,8.89
2023-03-25T03:24:24.475Z,8.83
2023-03-25T03:26:53.448Z,8.81
2023-03-25T03:29:21.106Z,8.84
2023-03-25T03:32:06.120Z,8.92
2023-03-25T03:34:37.116Z,9.01
2023-03-25T03:37:04.673Z,9.09
2023-03-25T03:39:32.696Z,9.13
2023-03-25T03:42:00.428Z,9.17
2023-03-25T03:44:28.001Z,9.22
2023-03-25T03:46:55.952Z,9.27
2023-03-25T03:49:23.568Z,9.32
2023-03-25T03:51:51.148Z,9.35
2023-03-25T03:54:18.721Z,9.37
2023-03-25T03:56:46.804Z,9.41
2023-03-25T03:59:14.816Z,9.42
2023-03-25T04:01:46.769Z,9.39
2023-03-25T04:04:14.386Z,9.19
2023-03-25T04:06:42.248Z,9.01
2023-03-25T04:09:09.924Z,8.86
2023-03-25T04:11:38.064Z,8.77
2023-03-25T04:14:05.638Z,8.71
2023-03-25T04:16:36.029Z,8.68
2023-03-25T04:19:04.133Z,8.69
2023-03-25T04:21:31.708Z,8.70
2023-03-25T04:24:01.846Z,8.70
2023-03-25T04:26:29.782Z,8.67
2023-03-25T04:29:00.591Z,8.60
2023-03-25T04:31:31.012Z,8.51
2023-03-25T04:33:58.918Z,8.48
2023-03-25T04:36:29.110Z,8.49
2023-03-25T04:38:56.948Z,8.51
2023-03-25T04:41:24.509Z,8.51
2023-03-25T04:43:52.446Z,8.57
2023-03-25T04:46:20.172Z,8.64
2023-03-25T04:48:48.067Z,8.71
2023-03-25T04:51:15.612Z,8.79
2023-03-25T04:53:43.249Z,8.86
2023-03-25T04:56:13.162Z,8.90
2023-03-25T04:58:40.863Z,8.94
2023-03-25T05:01:11.514Z,8.97
2023-03-25T05:03:40.215Z,8.96
2023-03-25T05:06:09.032Z,8.90
2023-03-25T05:08:36.627Z,8.81
2023-03-25T05:11:04.692Z,8.75
2023-03-25T05:13:32.623Z,8.74
2023-03-25T05:16:00.311Z,8.71
2023-03-25T05:18:27.931Z,8.61
2023-03-25T05:20:56.891Z,8.53
2023-03-25T05:23:24.970Z,8.48
2023-03-25T05:25:53.890Z,8.45
2023-03-25T05:28:22.159Z,8.44
2023-03-25T05:30:49.761Z,8.46
2023-03-25T05:33:17.344Z,8.50
2023-03-25T05:35:45.093Z,8.55
2023-03-25T05:38:14.227Z,8.61
2023-03-25T05:40:41.792Z,8.57
2023-03-25T05:43:09.383Z,8.50
2023-03-25T05:45:37.329Z,8.51
2023-03-25T05:48:05.135Z,8.56
2023-03-25T05:50:33.386Z,8.60
2023-03-25T05:53:01.079Z,8.60
2023-03-25T05:55:28.691Z,8.50
2023-03-25T05:57:57.019Z,8.41
2023-03-25T06:00:24.765Z,8.36
2023-03-25T06:02:52.823Z,8.32
2023-03-25T06:05:23.867Z,8.29
2023-03-25T06:07:51.717Z,8.27
2023-03-25T06:10:19.281Z,8.26
2023-03-25T06:12:47.389Z,8.29
2023-03-25T06:15:15.813Z,8.34
2023-03-25T06:17:46.731Z,8.38
2023-03-25T06:20:14.344Z,8.42
2023-03-25T06:22:42.924Z,8.50
2023-03-25T06:25:10.473Z,8.59
2023-03-25T06:27:40.853Z,8.67
2023-03-25T06:30:08.467Z,8.73
2023-03-25T06:32:36.198Z,8.80
2023-03-25T06:35:04.115Z,8.86
2023-03-25T06:37:31.766Z,8.88
2023-03-25T06:39:59.956Z,8.90
2023-03-25T06:42:27.538Z,8.93
2023-03-25T06:44:55.158Z,8.97
2023-03-25T06:47:22.784Z,9.02
2023-03-25T06:49:50.435Z,9.09
2023-03-25T06:52:18.612Z,9.12
2023-03-25T06:54:46.242Z,9.09
2023-03-25T06:57:14.262Z,9.07
2023-03-25T06:59:41.919Z,9.04
2023-03-25T07:02:09.551Z,9.06
2023-03-25T07:04:37.718Z,9.11
2023-03-25T07:07:05.409Z,9.14
2023-03-25T07:09:33.021Z,9.19
2023-03-25T07:12:00.679Z,9.26
2023-03-25T07:14:28.381Z,9.31
2023-03-25T07:16:56.851Z,9.29
2023-03-25T07:19:24.400Z,9.11
2023-03-25T07:21:52.106Z,8.89
2023-03-25T07:24:19.701Z,8.71
2023-03-25T07:26:47.360Z,8.58
2023-03-25T07:29:15.597Z,8.48
2023-03-25T07:31:43.263Z,8.40
2023-03-25T07:34:10.858Z,8.32
2023-03-25T07:36:38.556Z,8.27
2023-03-25T07:39:08.057Z,8.22
2023-03-25T07:41:36.027Z,8.20
2023-03-25T07:44:03.709Z,8.23
2023-03-25T07:46:31.628Z,8.25
2023-03-25T07:48:59.307Z,8.25
2023-03-25T07:51:26.957Z,8.24
2023-03-25T07:53:55.693Z,8.28
2023-03-25T07:56:32.796Z,8.35
2023-03-25T07:59:00.441Z,8.46
2023-03-25T08:01:28.036Z,8.63
2023-03-25T08:03:56.033Z,8.86
2023-03-25T08:06:23.853Z,9.12
2023-03-25T08:08:51.597Z,9.35
2023-03-25T08:11:19.331Z,9.53
2023-03-25T08:13:46.996Z,9.65
2023-03-25T08:16:15.109Z,9.74
2023-03-25T08:18:45.334Z,9.81
2023-03-25T08:21:13.218Z,9.83
2023-03-25T08:23:41.217Z,9.86
2023-03-25T08:26:09.223Z,9.86
2023-03-25T08:28:37.139Z,9.86
2023-03-25T08:31:05.467Z,9.88
2023-03-25T08:33:34.694Z,9.90
2023-03-25T08:36:02.582Z,9.90
2023-03-25T08:38:34.330Z,9.90
2023-03-25T08:41:03.122Z,9.90
2023-03-25T08:43:31.391Z,9.85
2023-03-25T08:45:59.140Z,9.79
2023-03-25T08:48:26.952Z,9.74
2023-03-25T08:50:54.654Z,9.66
2023-03-25T08:53:23.261Z,9.58
2023-03-25T08:55:51.466Z,9.59
2023-03-25T08:58:19.537Z,9.68
2023-03-25T09:00:47.301Z,9.81
2023-03-25T09:03:15.258Z,9.98
2023-03-25T09:05:44.686Z,10.28
2023-03-25T09:08:12.390Z,10.45
2023-03-25T09:10:40.244Z,10.58
2023-03-25T09:13:08.019Z,10.64
2023-03-25T09:15:35.887Z,10.59
2023-03-25T09:18:03.892Z,10.56
2023-03-25T09:20:31.940Z,10.58
2023-03-25T09:22:59.712Z,10.63
2023-03-25T09:25:27.669Z,10.61
2023-03-25T09:27:55.980Z,10.60
2023-03-25T09:30:23.911Z,10.63
2023-03-25T09:32:51.770Z,10.65
2023-03-25T09:35:19.569Z,10.69
2023-03-25T09:37:51.818Z,10.72
2023-03-25T09:40:20.062Z,11.02
2023-03-25T09:42:48.315Z,11.21
2023-03-25T09:45:16.062Z,11.24
2023-03-25T09:47:44.021Z,11.18
2023-03-25T09:50:11.753Z,11.18
2023-03-25T09:52:39.647Z,11.20
2023-03-25T09:55:07.826Z,11.23
2023-03-25T09:57:37.756Z,11.25
2023-03-25T10:00:07.019Z,11.37
2023-03-25T10:02:34.938Z,11.74
2023-03-25T10:05:02.701Z,12.02
2023-03-25T10:07:30.862Z,12.22
2023-03-25T10:09:59.268Z,12.39
2023-03-25T10:12:27.081Z,12.38
2023-03-25T10:14:54.767Z,12.40
2023-03-25T10:17:22.835Z,12.56
2023-03-25T10:19:54.367Z,12.59
2023-03-25T10:22:22.596Z,12.49
2023-03-25T10:24:50.494Z,12.43
2023-03-25T10:27:18.237Z,12.40
2023-03-25T10:29:45.968Z,12.36
2023-03-25T10:32:16.322Z,12.26
2023-03-25T10:34:46.998Z,12.18
2023-03-25T10:37:15.479Z,12.27
2023-03-25T10:39:45.956Z,12.60
2023-03-25T10:42:14.585Z,12.69
2023-03-25T10:44:43.662Z,12.71
2023-03-25T10:47:11.496Z,12.82
2023-03-25T10:49:39.223Z,12.93
2023-03-25T10:52:07.297Z,13.00
2023-03-25T10:54:35.168Z,13.04
2023-03-25T10:57:03.756Z,13.14
2023-03-25T10:59:31.811Z,13.04
2023-03-25T11:02:00.020Z,12.99
2023-03-25T11:04:28.060Z,13.22
2023-03-25T11:06:55.964Z,14.44
2023-03-25T11:09:24.617Z,14.96
2023-03-25T11:11:52.605Z,14.89
2023-03-25T11:14:21.761Z,15.18
2023-03-25T11:16:49.722Z,14.92
2023-03-25T11:19:17.589Z,14.56
2023-03-25T11:21:46.234Z,15.02
2023-03-25T11:24:14.705Z,15.97
2023-03-25T11:26:42.588Z,15.83
2023-03-25T11:29:10.606Z,15.26
2023-03-25T11:31:38.535Z,14.65
2023-03-25T11:34:06.921Z,13.74
2023-03-25T11:36:35.470Z,13.06
2023-03-25T11:39:04.839Z,12.51
2023-03-25T11:41:32.902Z,11.93
2023-03-25T11:44:00.938Z,11.49
2023-03-25T11:46:29.332Z,11.09
2023-03-25T11:48:57.294Z,10.87
2023-03-25T11:51:25.232Z,10.74
2023-03-25T11:53:53.129Z,10.66
2023-03-25T11:56:21.076Z,10.54
2023-03-25T11:58:50.143Z,10.44
2023-03-25T12:01:18.092Z,10.47
2023-03-25T12:03:46.148Z,10.52
2023-03-25T12:06:14.164Z,10.51
2023-03-25T12:08:42.189Z,10.43
2023-03-25T12:11:11.293Z,10.35
2023-03-25T12:13:39.146Z,10.25
2023-03-25T12:16:08.314Z,10.12
2023-03-25T12:18:36.278Z,10.01
2023-03-25T12:21:04.181Z,9.85
2023-03-25T12:23:32.869Z,9.94
2023-03-25T12:26:01.044Z,10.70
2023-03-25T12:28:30.816Z,11.75
2023-03-25T12:30:59.350Z,12.62
2023-03-25T12:33:28.431Z,12.86
2023-03-25T12:35:56.748Z,12.48
2023-03-25T12:38:24.869Z,12.06
2023-03-25T12:40:52.994Z,11.65
2023-03-25T12:43:21.307Z,11.31
2023-03-25T12:45:49.484Z,11.00
2023-03-25T12:48:17.893Z,10.76
2023-03-25T12:50:45.773Z,10.59
2023-03-25T12:53:13.784Z,10.70
2023-03-25T12:55:41.964Z,11.14
2023-03-25T12:58:09.805Z,11.69
2023-03-25T13:00:38.131Z,12.16
2023-03-25T13:03:06.140Z,12.49
2023-03-25T13:05:34.514Z,12.66
2023-03-25T13:08:02.581Z,12.80
2023-03-25T13:10:30.470Z,12.88
2023-03-25T13:12:58.923Z,13.00
2023-03-25T13:15:27.976Z,12.99
2023-03-25T13:17:58.079Z,12.93
2023-03-25T13:20:26.278Z,12.99
2023-03-25T13:22:54.219Z,13.12
2023-03-25T13:25:23.267Z,13.29
2023-03-25T13:27:52.174Z,13.57
2023-03-25T13:30:20.221Z,13.74
2023-03-25T13:32:50.660Z,13.82
2023-03-25T13:35:18.919Z,13.97
2023-03-25T13:37:47.454Z,14.14
2023-03-25T13:40:15.467Z,14.27
2023-03-25T13:42:43.294Z,14.15
2023-03-25T13:45:11.249Z,13.91
2023-03-25T13:47:39.519Z,13.58
2023-03-25T13:50:08.378Z,13.21
2023-03-25T13:52:36.720Z,12.56
2023-03-25T13:55:04.676Z,11.92
2023-03-25T13:57:32.411Z,11.76
2023-03-25T14:00:00.306Z,11.65
2023-03-25T14:02:29.262Z,11.61
2023-03-25T14:04:57.154Z,11.62
2023-03-25T14:07:25.162Z,11.63
2023-03-25T14:09:55.415Z,11.64
2023-03-25T14:12:24.093Z,11.70
2023-03-25T14:14:52.809Z,11.67
2023-03-25T14:17:20.716Z,11.79
2023-03-25T14:19:48.707Z,12.13
2023-03-25T14:22:16.913Z,12.49
2023-03-25T14:24:45.348Z,12.81
2023-03-25T14:27:13.656Z,13.08
2023-03-25T14:29:41.690Z,13.18
2023-03-25T14:32:09.797Z,13.12
2023-03-25T14:34:39.365Z,13.06
2023-03-25T14:37:08.438Z,13.14
2023-03-25T14:39:36.557Z,13.11
2023-03-25T14:42:04.665Z,13.18
2023-03-25T14:44:33.288Z,13.37
2023-03-25T14:47:02.422Z,13.47
2023-03-25T14:49:31.460Z,13.12
2023-03-25T14:52:00.316Z,12.76
2023-03-25T14:54:30.073Z,12.51
2023-03-25T14:56:57.909Z,12.31
2023-03-25T14:59:25.741Z,12.13
2023-03-25T15:01:53.508Z,11.79
2023-03-25T15:04:21.631Z,11.37
2023-03-25T15:06:50.174Z,10.94
2023-03-25T15:09:17.974Z,10.50
2023-03-25T15:11:45.796Z,10.17
2023-03-25T15:14:13.733Z,9.96
2023-03-25T15:16:44.122Z,9.80
2023-03-25T15:19:11.954Z,9.69
2023-03-25T15:21:40.088Z,9.56
2023-03-25T15:24:08.070Z,9.46
2023-03-25T15:26:35.791Z,9.48
2023-03-25T15:29:04.326Z,9.59
2023-03-25T15:31:38.397Z,9.70
2023-03-25T15:34:06.502Z,9.71
2023-03-25T15:36:34.376Z,9.65
2023-03-25T15:39:02.227Z,9.60
2023-03-25T15:41:30.265Z,9.55
2023-03-25T15:44:01.184Z,9.52
2023-03-25T15:46:29.371Z,9.45
2023-03-25T15:48:57.415Z,9.32
2023-03-25T15:51:25.415Z,9.24
2023-03-25T15:53:54.290Z,9.18
2023-03-25T15:56:22.075Z,9.15
2023-03-25T15:58:51.271Z,9.12
2023-03-25T16:01:19.253Z,9.10
2023-03-25T16:03:47.529Z,9.09
2023-03-25T16:06:16.619Z,9.10
2023-03-25T16:08:44.614Z,9.15
2023-03-25T16:11:12.588Z,9.15
2023-03-25T16:13:40.523Z,9.21
2023-03-25T16:16:09.543Z,9.33
2023-03-25T16:18:38.082Z,9.40
2023-03-25T16:21:05.856Z,9.46
2023-03-25T16:23:33.819Z,9.47
2023-03-25T16:26:01.794Z,9.46
2023-03-25T16:28:29.698Z,9.41
2023-03-25T16:30:58.618Z,9.37
2023-03-25T16:33:26.601Z,9.39
2023-03-25T16:35:54.583Z,9.46
2023-03-25T16:38:23.015Z,9.52
2023-03-25T16:40:51.469Z,9.60
2023-03-25T16:43:21.614Z,9.73
2023-03-25T16:45:49.608Z,9.86
2023-03-25T16:48:17.699Z,9.91
2023-03-25T16:50:45.724Z,9.87
2023-03-25T16:53:13.652Z,9.83
2023-03-25T16:55:42.618Z,9.79
2023-03-25T16:58:10.505Z,9.78
2023-03-25T17:00:38.374Z,9.80
2023-03-25T17:03:06.819Z,9.85
2023-03-25T17:05:35.281Z,9.88
2023-03-25T17:08:04.788Z,9.93
2023-03-25T17:10:33.063Z,9.95
2023-03-25T17:13:01.003Z,9.93
2023-03-25T17:15:28.934Z,9.92
2023-03-25T17:18:00.469Z,9.92
2023-03-25T17:20:30.910Z,9.90
2023-03-25T17:22:59.752Z,9.92
2023-03-25T17:25:27.900Z,9.94
2023-03-25T17:27:55.851Z,9.92
2023-03-25T17:30:23.692Z,9.90
2023-03-25T17:32:53.669Z,9.89
2023-03-25T17:35:22.012Z,9.91
2023-03-25T17:37:49.853Z,9.92
2023-03-25T17:40:17.879Z,9.94
2023-03-25T17:42:46.191Z,9.94
2023-03-25T17:45:14.924Z,9.89
2023-03-25T17:47:43.810Z,9.82
2023-03-25T17:50:11.824Z,9.74
2023-03-25T17:52:39.715Z,9.64
2023-03-25T17:55:07.821Z,9.53
2023-03-25T17:57:37.508Z,9.42
2023-03-25T18:00:08.543Z,9.32
2023-03-25T18:02:36.448Z,9.23
2023-03-25T18:05:06.528Z,9.16
2023-03-25T18:07:34.588Z,9.10
2023-03-25T18:10:03.513Z,9.07
2023-03-25T18:12:31.403Z,9.02
2023-03-25T18:14:59.591Z,8.95
2023-03-25T18:17:27.800Z,8.89
2023-03-25T18:19:55.882Z,8.83
2023-03-25T18:22:24.573Z,8.76
2023-03-25T18:24:52.987Z,8.71
2023-03-25T18:27:25.632Z,8.66
2023-03-25T18:29:58.833Z,8.62
2023-03-25T18:32:29.282Z,8.58
2023-03-25T18:34:57.174Z,8.54
2023-03-25T18:37:25.293Z,8.54
2023-03-25T18:39:53.099Z,8.58
2023-03-25T18:42:22.625Z,8.65
2023-03-25T18:44:52.729Z,8.75
2023-03-25T18:47:20.821Z,8.89
2023-03-25T18:49:48.638Z,9.03
2023-03-25T18:52:16.622Z,9.14
2023-03-25T18:54:44.579Z,9.22
2023-03-25T18:57:13.274Z,9.31
2023-03-25T18:59:41.292Z,9.37
2023-03-25T19:02:09.075Z,9.41
2023-03-25T19:04:37.999Z,9.44
2023-03-25T19:07:06.710Z,9.45
2023-03-25T19:09:35.171Z,9.48
2023-03-25T19:12:02.869Z,9.49
2023-03-25T19:14:31.110Z,9.51
2023-03-25T19:17:04.104Z,9.54
2023-03-25T19:19:32.620Z,9.57
2023-03-25T19:22:00.921Z,9.61
2023-03-25T19:24:28.952Z,9.64
2023-03-25T19:26:57.347Z,9.67
2023-03-25T19:29:25.258Z,9.72
2023-03-25T19:31:53.168Z,9.79
2023-03-25T19:34:22.690Z,9.81
2023-03-25T19:36:50.986Z,9.82
2023-03-25T19:39:19.029Z,9.84
2023-03-25T19:41:48.416Z,9.83
2023-03-25T19:44:16.827Z,9.80
2023-03-25T19:46:45.383Z,9.76
2023-03-25T19:49:13.534Z,9.73
2023-03-25T19:51:43.554Z,9.73
2023-03-25T19:54:13.838Z,9.77
2023-03-25T19:56:42.121Z,9.82
2023-03-25T19:59:17.956Z,9.85
2023-03-25T20:01:46.140Z,9.89
2023-03-25T20:04:15.484Z,9.90
2023-03-25T20:06:45.618Z,9.72
2023-03-25T20:09:14.961Z,9.51
2023-03-25T20:11:42.858Z,9.34
2023-03-25T20:14:10.956Z,9.21
2023-03-25T20:16:38.964Z,9.11
2023-03-25T20:19:06.787Z,9.03
2023-03-25T20:21:34.695Z,8.97
2023-03-25T20:24:03.130Z,8.85
2023-03-25T20:26:30.966Z,8.71
2023-03-25T20:28:58.712Z,8.54
2023-03-25T20:31:28.894Z,8.39
2023-03-25T20:33:56.970Z,8.25
2023-03-25T20:36:25.520Z,8.14
2023-03-25T20:38:57.628Z,8.05
2023-03-25T20:41:26.470Z,8.01
2023-03-25T20:43:54.498Z,7.98
2023-03-25T20:46:25.898Z,7.97
2023-03-25T20:48:53.748Z,7.97
2023-03-25T20:51:21.670Z,7.97
2023-03-25T20:53:49.858Z,7.99
2023-03-25T20:56:17.880Z,8.02
2023-03-25T20:58:47.017Z,8.06
2023-03-25T21:01:15.736Z,8.11
2023-03-25T21:03:44.126Z,8.15
2023-03-25T21:06:22.851Z,8.21
2023-03-25T21:08:53.284Z,8.30
2023-03-25T21:11:21.239Z,8.36
2023-03-25T21:13:49.117Z,8.42
2023-03-25T21:16:17.757Z,8.48
2023-03-25T21:18:46.384Z,8.57
2023-03-25T21:21:15.705Z,8.61
2023-03-25T21:23:44.050Z,8.65
2023-03-25T21:26:12.233Z,8.68
2023-03-25T21:28:40.117Z,8.70
2023-03-25T21:31:08.157Z,8.70
2023-03-25T21:33:37.958Z,8.69
2023-03-25T21:36:06.004Z,8.64
2023-03-25T21:38:33.865Z,8.61
2023-03-25T21:41:03.031Z,8.56
2023-03-25T21:43:30.810Z,8.57
2023-03-25T21:46:05.561Z,8.57
2023-03-25T21:48:33.917Z,8.56
2023-03-25T21:51:01.854Z,8.55
2023-03-25T21:53:31.397Z,8.54
2023-03-25T21:56:01.171Z,8.52
2023-03-25T21:58:28.874Z,8.51
2023-03-25T22:00:58.394Z,8.48
2023-03-25T22:03:30.376Z,8.34
2023-03-25T22:06:02.058Z,8.18
2023-03-25T22:08:30.691Z,8.06
2023-03-25T22:10:58.663Z,7.98
2023-03-25T22:13:26.803Z,7.91
2023-03-25T22:15:54.981Z,7.87
2023-03-25T22:18:23.468Z,7.85
2023-03-25T22:20:51.846Z,7.81
2023-03-25T22:23:21.241Z,7.77
2023-03-25T22:25:49.146Z,7.74
2023-03-25T22:28:17.557Z,7.72
2023-03-25T22:30:45.763Z,7.69
2023-03-25T22:33:13.744Z,7.68
2023-03-25T22:35:41.692Z,7.68
2023-03-25T22:38:09.595Z,7.68
2023-03-25T22:40:37.403Z,7.70
2023-03-25T22:43:05.808Z,7.72
2023-03-25T22:45:34.269Z,7.73
2023-03-25T22:48:02.129Z,7.77
2023-03-25T22:50:31.635Z,7.79
2023-03-25T22:52:59.657Z,7.79
2023-03-25T22:55:27.767Z,7.78
2023-03-25T22:57:55.842Z,7.78
2023-03-25T23:00:23.774Z,7.77
2023-03-25T23:02:51.671Z,7.76
2023-03-25T23:05:19.741Z,7.75
2023-03-25T23:07:48.118Z,7.75
2023-03-25T23:10:19.041Z,7.75
2023-03-25T23:12:47.135Z,7.75
2023-03-25T23:15:15.490Z,7.74
2023-03-25T23:17:43.300Z,7.77
2023-03-25T23:20:12.105Z,7.79
2023-03-25T23:22:40.253Z,7.81
2023-03-25T23:25:09.784Z,7.82
2023-03-25T23:27:37.528Z,7.82
2023-03-25T23:30:05.502Z,7.85
2023-03-25T23:32:33.903Z,7.85
2023-03-25T23:35:03.487Z,7.87
2023-03-25T23:37:31.603Z,7.88
2023-03-25T23:39:59.293Z,7.85
2023-03-25T23:42:34.990Z,7.83
2023-03-25T23:45:04.464Z,7.83
2023-03-25T23:47:32.293Z,7.84
2023-03-25T23:50:02.220Z,7.88
2023-03-25T23:52:30.210Z,7.90
2023-03-25T23:54:58.006Z,7.94
2023-03-25T23:57:26.385Z,7.95
2023-03-25T23:59:54.249Z,7.99
